createdAt,value
2018-12-10T00:00:19.990Z,16.00
2018-12-10T00:01:20.040Z,16.00
2018-12-10T00:02:20.264Z,16.00
2018-12-10T00:03:20.497Z,16.00
2018-12-10T00:04:20.007Z,16.00
2018-12-10T00:05:20.543Z,16.00
2018-12-10T00:06:19.919Z,16.00
2018-12-10T00:07:19.943Z,16.00
2018-12-10T00:08:19.891Z,16.00
2018-12-10T00:09:20.267Z,16.00
2018-12-10T00:10:19.868Z,16.00
2018-12-10T00:11:19.857Z,16.00
2018-12-10T00:12:19.879Z,16.00
2018-12-10T00:13:19.888Z,16.00
2018-12-10T00:14:19.827Z,16.00
2018-12-10T00:15:19.816Z,16.00
2018-12-10T00:16:20.149Z,16.00
2018-12-10T00:17:19.795Z,16.00
2018-12-10T00:18:19.785Z,16.00
2018-12-10T00:19:19.816Z,16.00
2018-12-10T00:20:20.488Z,16.00
2018-12-10T00:21:19.751Z,16.00
2018-12-10T00:22:19.744Z,16.00
2018-12-10T00:23:20.192Z,16.00
2018-12-10T00:24:19.721Z,16.00
2018-12-10T00:25:19.748Z,16.00
2018-12-10T00:26:19.698Z,16.00
2018-12-10T00:27:19.690Z,16.00
2018-12-10T00:28:19.687Z,16.00
2018-12-10T00:29:19.682Z,16.00
2018-12-10T00:30:20.039Z,16.00
2018-12-10T00:31:19.729Z,16.00
2018-12-10T00:32:19.645Z,16.00
2018-12-10T00:33:19.624Z,16.00
2018-12-10T00:34:19.640Z,16.00
2018-12-10T00:35:19.603Z,16.00
2018-12-10T00:36:19.593Z,16.00
2018-12-10T00:37:21.134Z,16.00
2018-12-10T00:38:19.572Z,20.00
2018-12-10T00:39:19.567Z,16.00
2018-12-10T00:40:19.550Z,16.00
2018-12-10T00:41:19.540Z,16.00
2018-12-10T00:42:19.530Z,16.00
2018-12-10T00:43:19.558Z,16.00
2018-12-10T00:44:19.913Z,16.00
2018-12-10T00:45:19.498Z,16.00
2018-12-10T00:46:19.488Z,16.00
2018-12-10T00:47:19.478Z,16.00
2018-12-10T00:48:19.467Z,20.00
2018-12-10T00:49:19.717Z,16.00
2018-12-10T00:50:19.445Z,16.00
2018-12-10T00:51:19.751Z,16.00
2018-12-10T00:52:19.430Z,16.00
2018-12-10T00:53:19.414Z,16.00
2018-12-10T00:54:19.403Z,16.00
2018-12-10T00:55:19.432Z,16.00
2018-12-10T00:56:19.383Z,16.00
2018-12-10T00:57:19.371Z,16.00
2018-12-10T00:58:19.795Z,16.00
2018-12-10T00:59:19.352Z,16.00
2018-12-10T01:00:19.340Z,16.00
2018-12-10T01:01:19.371Z,16.00
2018-12-10T01:02:19.319Z,16.00
2018-12-10T01:03:19.326Z,16.00
2018-12-10T01:04:19.299Z,16.00
2018-12-10T01:05:19.634Z,16.00
2018-12-10T01:06:19.276Z,16.00
2018-12-10T01:07:19.354Z,16.00
2018-12-10T01:08:19.262Z,16.00
2018-12-10T01:09:19.248Z,16.00
2018-12-10T01:10:19.235Z,16.00
2018-12-10T01:11:19.229Z,16.00
2018-12-10T01:12:19.677Z,16.00
2018-12-10T01:13:19.335Z,16.00
2018-12-10T01:14:19.193Z,16.00
2018-12-10T01:15:19.182Z,16.00
2018-12-10T01:16:19.174Z,16.00
2018-12-10T01:17:19.161Z,16.00
2018-12-10T01:18:19.151Z,16.00
2018-12-10T01:19:19.558Z,16.00
2018-12-10T01:20:19.170Z,16.00
2018-12-10T01:21:19.119Z,16.00
2018-12-10T01:22:19.109Z,16.00
2018-12-10T01:23:19.101Z,16.00
2018-12-10T01:24:19.099Z,16.00
2018-12-10T01:25:19.153Z,16.00
2018-12-10T01:26:19.358Z,16.00
2018-12-10T01:27:19.059Z,16.00
2018-12-10T01:28:19.046Z,16.00
2018-12-10T01:29:19.036Z,16.00
2018-12-10T01:30:19.027Z,16.00
2018-12-10T01:31:19.059Z,16.00
2018-12-10T01:32:19.005Z,16.00
2018-12-10T01:33:19.281Z,16.00
2018-12-10T01:34:19.989Z,16.00
2018-12-10T01:35:19.478Z,16.00
2018-12-10T01:36:18.962Z,16.00
2018-12-10T01:37:18.996Z,16.00
2018-12-10T01:38:18.940Z,16.00
2018-12-10T01:39:18.931Z,16.00
2018-12-10T01:40:19.202Z,16.00
2018-12-10T01:41:18.928Z,16.00
2018-12-10T01:42:18.900Z,16.00
2018-12-10T01:43:18.972Z,16.00
2018-12-10T01:44:18.877Z,16.00
2018-12-10T01:45:18.868Z,16.00
2018-12-10T01:46:18.856Z,16.00
2018-12-10T01:47:19.285Z,16.00
2018-12-10T01:48:18.835Z,16.00
2018-12-10T01:49:18.865Z,16.00
2018-12-10T01:50:18.819Z,16.00
2018-12-10T01:51:18.804Z,16.00
2018-12-10T01:52:18.793Z,16.00
2018-12-10T01:53:18.788Z,16.00
2018-12-10T01:54:19.123Z,16.00
2018-12-10T01:55:18.800Z,16.00
2018-12-10T01:56:18.753Z,16.00
2018-12-10T01:57:18.741Z,16.00
2018-12-10T01:58:18.730Z,16.00
2018-12-10T01:59:18.722Z,16.00
2018-12-10T02:00:18.711Z,16.00
2018-12-10T02:01:18.780Z,16.00
2018-12-10T02:02:18.757Z,16.00
2018-12-10T02:03:18.727Z,16.00
2018-12-10T02:04:18.671Z,16.00
2018-12-10T02:05:18.657Z,16.00
2018-12-10T02:06:18.651Z,16.00
2018-12-10T02:07:22.312Z,16.00
2018-12-10T02:08:18.627Z,16.00
2018-12-10T02:09:18.615Z,16.00
2018-12-10T02:10:18.607Z,16.00
2018-12-10T02:11:18.594Z,16.00
2018-12-10T02:12:18.608Z,16.00
2018-12-10T02:13:18.615Z,16.00
2018-12-10T02:14:19.044Z,16.00
2018-12-10T02:15:18.552Z,16.00
2018-12-10T02:16:18.551Z,16.00
2018-12-10T02:17:18.533Z,16.00
2018-12-10T02:18:18.521Z,16.00
2018-12-10T02:19:18.571Z,16.00
2018-12-10T02:20:18.504Z,16.00
2018-12-10T02:21:18.882Z,16.00
2018-12-10T02:22:18.481Z,16.00
2018-12-10T02:23:18.473Z,16.00
2018-12-10T02:24:18.457Z,16.00
2018-12-10T02:25:18.489Z,16.00
2018-12-10T02:26:18.440Z,16.00
2018-12-10T02:27:18.438Z,16.00
2018-12-10T02:28:18.721Z,16.00
2018-12-10T02:29:18.405Z,16.00
2018-12-10T02:30:18.402Z,16.00
2018-12-10T02:31:18.433Z,16.00
2018-12-10T02:32:18.377Z,16.00
2018-12-10T02:33:18.364Z,16.00
2018-12-10T02:34:18.354Z,16.00
2018-12-10T02:35:18.777Z,16.00
2018-12-10T02:36:18.334Z,16.00
2018-12-10T02:37:18.637Z,16.00
2018-12-10T02:38:18.310Z,16.00
2018-12-10T02:39:18.301Z,16.00
2018-12-10T02:40:18.291Z,16.00
2018-12-10T02:41:18.283Z,16.00
2018-12-10T02:42:18.568Z,16.00
2018-12-10T02:43:18.306Z,16.00
2018-12-10T02:44:18.248Z,16.00
2018-12-10T02:45:18.286Z,16.00
2018-12-10T02:46:18.228Z,16.00
2018-12-10T02:47:18.217Z,16.00
2018-12-10T02:48:18.209Z,16.00
2018-12-10T02:49:18.685Z,16.00
2018-12-10T02:50:18.185Z,16.00
2018-12-10T02:51:18.176Z,16.00
2018-12-10T02:52:18.165Z,16.00
2018-12-10T02:53:18.153Z,16.00
2018-12-10T02:54:18.147Z,16.00
2018-12-10T02:55:18.220Z,16.00
2018-12-10T02:56:18.401Z,16.00
2018-12-10T02:57:18.110Z,16.00
2018-12-10T02:58:18.101Z,16.00
2018-12-10T02:59:18.090Z,16.00
2018-12-10T03:01:41.100Z,16.00
2018-12-10T03:02:40.788Z,16.00
2018-12-10T03:03:40.782Z,16.00
2018-12-10T03:04:40.766Z,16.00
2018-12-10T03:05:40.757Z,16.00
2018-12-10T03:06:40.746Z,16.00
2018-12-10T03:07:41.349Z,16.00
2018-12-10T03:08:40.724Z,16.00
2018-12-10T03:09:40.717Z,16.00
2018-12-10T03:10:40.703Z,16.00
2018-12-10T03:11:40.694Z,16.00
2018-12-10T03:12:40.683Z,16.00
2018-12-10T03:13:40.742Z,16.00
2018-12-10T03:14:40.667Z,16.00
2018-12-10T03:15:40.653Z,16.00
2018-12-10T03:16:40.647Z,16.00
2018-12-10T03:17:40.700Z,16.00
2018-12-10T03:18:40.622Z,16.00
2018-12-10T03:19:41.422Z,16.00
2018-12-10T03:20:40.601Z,16.00
2018-12-10T03:21:40.665Z,16.00
2018-12-10T03:22:40.582Z,16.00
2018-12-10T03:23:40.572Z,16.00
2018-12-10T03:24:40.559Z,16.00
2018-12-10T03:25:41.054Z,16.00
2018-12-10T03:26:40.540Z,16.00
2018-12-10T03:27:40.529Z,16.00
2018-12-10T03:28:40.520Z,16.00
2018-12-10T03:29:40.511Z,16.00
2018-12-10T03:30:40.501Z,16.00
2018-12-10T03:31:40.894Z,16.00
2018-12-10T03:32:40.479Z,16.00
2018-12-10T03:33:40.467Z,16.00
2018-12-10T03:34:40.457Z,16.00
2018-12-10T03:35:40.446Z,16.00
2018-12-10T03:36:40.436Z,16.00
2018-12-10T03:37:40.779Z,16.00
2018-12-10T03:38:40.415Z,16.00
2018-12-10T03:39:40.404Z,16.00
2018-12-10T03:40:40.395Z,16.00
2018-12-10T03:41:40.392Z,16.00
2018-12-10T03:42:40.487Z,16.00
2018-12-10T03:43:40.434Z,16.00
2018-12-10T03:44:40.356Z,16.00
2018-12-10T03:45:40.344Z,16.00
2018-12-10T03:46:40.334Z,16.00
2018-12-10T03:47:40.322Z,16.00
2018-12-10T03:48:40.315Z,16.00
2018-12-10T03:49:40.420Z,16.00
2018-12-10T03:50:40.761Z,16.00
2018-12-10T03:51:40.282Z,16.00
2018-12-10T03:52:40.270Z,16.00
2018-12-10T03:53:40.262Z,16.00
2018-12-10T03:54:40.253Z,16.00
2018-12-10T03:55:40.331Z,16.00
2018-12-10T03:56:40.232Z,16.00
2018-12-10T03:57:40.601Z,16.00
2018-12-10T03:58:40.210Z,16.00
2018-12-10T03:59:40.198Z,16.00
2018-12-10T04:00:40.193Z,24.00
2018-12-10T04:01:40.252Z,24.00
2018-12-10T04:02:40.169Z,24.00
2018-12-10T04:03:40.156Z,24.00
2018-12-10T04:04:41.569Z,24.00
2018-12-10T04:05:40.138Z,24.00
2018-12-10T04:06:40.131Z,24.00
2018-12-10T04:07:40.184Z,24.00
2018-12-10T04:08:40.107Z,24.00
2018-12-10T04:09:40.097Z,24.00
2018-12-10T04:10:40.085Z,24.00
2018-12-10T04:11:40.398Z,24.00
2018-12-10T04:12:40.171Z,24.00
2018-12-10T04:13:40.142Z,24.00
2018-12-10T04:14:40.044Z,24.00
2018-12-10T04:15:40.034Z,24.00
2018-12-10T04:16:40.028Z,24.00
2018-12-10T04:17:40.021Z,24.00
2018-12-10T04:18:40.426Z,24.00
2018-12-10T04:19:40.920Z,24.00
2018-12-10T04:20:39.982Z,24.00
2018-12-10T04:21:39.972Z,24.00
2018-12-10T04:22:39.962Z,24.00
2018-12-10T04:23:39.951Z,24.00
2018-12-10T04:24:39.947Z,24.00
2018-12-10T04:25:40.504Z,24.00
2018-12-10T04:26:40.483Z,24.00
2018-12-10T04:27:39.912Z,24.00
2018-12-10T04:28:39.899Z,24.00
2018-12-10T04:29:39.889Z,24.00
2018-12-10T04:30:39.884Z,24.00
2018-12-10T04:31:40.547Z,24.00
2018-12-10T04:32:39.860Z,24.00
2018-12-10T04:33:39.849Z,24.00
2018-12-10T04:34:39.858Z,24.00
2018-12-10T04:35:39.828Z,24.00
2018-12-10T04:36:39.817Z,24.00
2018-12-10T04:37:40.093Z,24.00
2018-12-10T04:38:39.868Z,24.00
2018-12-10T04:39:39.802Z,24.00
2018-12-10T04:40:39.780Z,24.00
2018-12-10T04:41:39.765Z,24.00
2018-12-10T04:42:39.756Z,24.00
2018-12-10T04:43:40.413Z,20.00
2018-12-10T04:44:39.741Z,24.00
2018-12-10T04:45:39.738Z,24.00
2018-12-10T04:46:39.718Z,24.00
2018-12-10T04:47:39.708Z,24.00
2018-12-10T04:48:39.702Z,24.00
2018-12-10T04:49:40.067Z,24.00
2018-12-10T04:50:40.016Z,24.00
2018-12-10T04:51:39.679Z,24.00
2018-12-10T04:52:39.660Z,24.00
2018-12-10T04:53:39.664Z,24.00
2018-12-10T04:54:39.633Z,24.00
2018-12-10T04:55:39.740Z,24.00
2018-12-10T04:56:39.616Z,24.00
2018-12-10T04:57:39.601Z,24.00
2018-12-10T04:58:39.591Z,24.00
2018-12-10T04:59:39.581Z,24.00
2018-12-10T05:00:39.571Z,24.00
2018-12-10T05:01:41.138Z,24.00
2018-12-10T05:02:39.553Z,24.00
2018-12-10T05:03:39.546Z,24.00
2018-12-10T05:04:39.532Z,24.00
2018-12-10T05:05:39.521Z,24.00
2018-12-10T05:06:39.509Z,24.00
2018-12-10T05:07:39.807Z,24.00
2018-12-10T05:08:39.944Z,24.00
2018-12-10T05:09:39.543Z,24.00
2018-12-10T05:10:39.601Z,24.00
2018-12-10T05:11:39.586Z,24.00
2018-12-10T05:12:39.529Z,24.00
2018-12-10T05:13:39.710Z,24.00
2018-12-10T05:14:39.428Z,24.00
2018-12-10T05:15:39.757Z,24.00
2018-12-10T05:16:39.405Z,24.00
2018-12-10T05:17:39.396Z,24.00
2018-12-10T05:18:39.386Z,24.00
2018-12-10T05:19:39.517Z,24.00
2018-12-10T05:20:39.365Z,24.00
2018-12-10T05:21:39.354Z,24.00
2018-12-10T05:22:39.801Z,24.00
2018-12-10T05:23:39.338Z,24.00
2018-12-10T05:24:39.325Z,24.00
2018-12-10T05:25:39.700Z,24.00
2018-12-10T05:26:39.309Z,24.00
2018-12-10T05:27:39.296Z,24.00
2018-12-10T05:28:39.294Z,24.00
2018-12-10T05:29:39.641Z,24.00
2018-12-10T05:30:39.262Z,24.00
2018-12-10T05:31:39.459Z,24.00
2018-12-10T05:32:39.249Z,24.00
2018-12-10T05:33:39.233Z,24.00
2018-12-10T05:34:39.223Z,24.00
2018-12-10T05:35:39.213Z,24.00
2018-12-10T05:36:39.682Z,24.00
2018-12-10T05:37:39.308Z,24.00
2018-12-10T05:38:39.228Z,24.00
2018-12-10T05:39:39.170Z,20.00
2018-12-10T05:40:39.158Z,24.00
2018-12-10T05:41:39.149Z,24.00
2018-12-10T05:42:39.141Z,24.00
2018-12-10T05:43:39.766Z,24.00
2018-12-10T05:44:39.118Z,24.00
2018-12-10T05:45:39.109Z,24.00
2018-12-10T05:46:39.101Z,24.00
2018-12-10T05:47:39.090Z,24.00
2018-12-10T05:48:39.079Z,24.00
2018-12-10T05:49:39.189Z,24.00
2018-12-10T05:50:39.369Z,24.00
2018-12-10T05:51:39.045Z,24.00
2018-12-10T05:52:39.037Z,24.00
2018-12-10T05:53:39.032Z,24.00
2018-12-10T05:54:39.163Z,24.00
2018-12-10T05:55:39.264Z,24.00
2018-12-10T05:56:39.053Z,24.00
2018-12-10T05:57:39.414Z,24.00
2018-12-10T05:58:38.983Z,24.00
2018-12-10T05:59:38.963Z,24.00
2018-12-10T06:00:39.014Z,24.00
2018-12-10T06:01:39.217Z,24.00
2018-12-10T06:02:38.938Z,24.00
2018-12-10T06:03:39.484Z,24.00
2018-12-10T06:04:38.915Z,24.00
2018-12-10T06:05:39.462Z,24.00
2018-12-10T06:06:38.895Z,20.00
2018-12-10T06:07:39.142Z,24.00
2018-12-10T06:08:38.880Z,24.00
2018-12-10T06:09:38.861Z,24.00
2018-12-10T06:10:39.285Z,24.00
2018-12-10T06:11:38.841Z,24.00
2018-12-10T06:12:38.829Z,20.00
2018-12-10T06:13:39.093Z,20.00
2018-12-10T06:14:38.829Z,24.00
2018-12-10T06:15:38.799Z,44.00
2018-12-10T06:16:38.787Z,20.00
2018-12-10T06:17:38.776Z,20.00
2018-12-10T06:18:38.782Z,20.00
2018-12-10T06:19:39.170Z,20.00
2018-12-10T06:20:38.745Z,20.00
2018-12-10T06:21:38.737Z,24.00
2018-12-10T06:22:39.149Z,20.00
2018-12-10T06:23:38.716Z,20.00
2018-12-10T06:24:38.717Z,24.00
2018-12-10T06:25:38.829Z,28.00
2018-12-10T06:26:38.686Z,24.00
2018-12-10T06:27:38.674Z,24.00
2018-12-10T06:28:38.662Z,24.00
2018-12-10T06:29:38.679Z,24.00
2018-12-10T06:30:38.654Z,24.00
2018-12-10T06:31:38.698Z,24.00
2018-12-10T06:32:38.625Z,24.00
2018-12-10T06:33:38.612Z,24.00
2018-12-10T06:34:39.023Z,24.00
2018-12-10T06:35:38.599Z,24.00
2018-12-10T06:36:38.581Z,24.00
2018-12-10T06:37:39.454Z,24.00
2018-12-10T06:38:38.561Z,20.00
2018-12-10T06:39:38.553Z,20.00
2018-12-10T06:40:38.541Z,20.00
2018-12-10T06:41:38.962Z,20.00
2018-12-10T06:42:38.521Z,20.00
2018-12-10T06:43:38.550Z,24.00
2018-12-10T06:44:38.497Z,24.00
2018-12-10T06:45:38.494Z,24.00
2018-12-10T06:46:38.476Z,24.00
2018-12-10T06:47:38.494Z,24.00
2018-12-10T06:48:38.758Z,24.00
2018-12-10T06:49:38.509Z,24.00
2018-12-10T06:50:38.436Z,28.00
2018-12-10T06:51:38.432Z,24.00
2018-12-10T06:52:38.424Z,28.00
2018-12-10T06:53:38.411Z,32.00
2018-12-10T06:54:38.397Z,28.00
2018-12-10T06:55:38.556Z,28.00
2018-12-10T06:56:38.385Z,32.00
2018-12-10T06:57:38.394Z,32.00
2018-12-10T06:58:38.364Z,36.00
2018-12-10T06:59:38.963Z,24.00
2018-12-10T07:00:38.336Z,24.00
2018-12-10T07:01:38.365Z,28.00
2018-12-10T07:02:38.349Z,32.00
2018-12-10T07:03:38.305Z,36.00
2018-12-10T07:04:38.291Z,36.00
2018-12-10T07:05:38.281Z,36.00
2018-12-10T07:06:38.269Z,44.00
2018-12-10T07:07:38.296Z,48.00
2018-12-10T07:08:38.250Z,52.00
2018-12-10T07:09:38.238Z,52.00
2018-12-10T07:10:38.234Z,56.00
2018-12-10T07:11:38.229Z,60.00
2018-12-10T07:12:38.221Z,64.00
2018-12-10T07:13:38.686Z,68.00
2018-12-10T07:14:38.185Z,80.00
2018-12-10T07:15:38.181Z,92.00
2018-12-10T07:16:38.168Z,96.00
2018-12-10T07:17:38.163Z,100.00
2018-12-10T07:18:38.170Z,100.00
2018-12-10T07:19:38.522Z,112.00
2018-12-10T07:20:38.126Z,112.00
2018-12-10T07:21:38.112Z,116.00
2018-12-10T07:22:38.127Z,128.00
2018-12-10T07:23:38.094Z,116.00
2018-12-10T07:24:38.150Z,120.00
2018-12-10T07:25:38.137Z,128.00
2018-12-10T07:26:38.088Z,144.00
2018-12-10T07:27:38.055Z,160.00
2018-12-10T07:28:38.104Z,188.00
2018-12-10T07:29:38.047Z,204.00
2018-12-10T07:30:41.545Z,204.00
2018-12-10T07:31:38.110Z,172.00
2018-12-10T07:32:38.010Z,184.00
2018-12-10T07:33:37.995Z,196.00
2018-12-10T07:34:37.973Z,204.00
2018-12-10T07:35:37.964Z,220.00
2018-12-10T07:36:37.959Z,228.00
2018-12-10T07:37:37.986Z,252.00
2018-12-10T07:38:37.930Z,272.00
2018-12-10T07:39:38.442Z,340.00
2018-12-10T07:40:37.910Z,388.00
2018-12-10T07:41:37.906Z,528.00
2018-12-10T07:42:37.901Z,600.00
2018-12-10T07:43:37.940Z,508.00
2018-12-10T07:44:37.873Z,476.00
2018-12-10T07:45:37.861Z,496.00
2018-12-10T07:46:37.851Z,600.00
2018-12-10T07:47:37.905Z,644.00
2018-12-10T07:48:37.838Z,652.00
2018-12-10T07:49:38.302Z,612.00
2018-12-10T07:50:37.809Z,632.00
2018-12-10T07:51:37.796Z,544.00
2018-12-10T07:52:37.789Z,468.00
2018-12-10T07:53:37.780Z,464.00
2018-12-10T07:54:37.766Z,480.00
2018-12-10T07:55:37.793Z,516.00
2018-12-10T07:56:37.754Z,644.00
2018-12-10T07:57:37.735Z,744.00
2018-12-10T07:58:37.727Z,700.00
2018-12-10T07:59:37.715Z,620.00
2018-12-10T08:00:37.706Z,648.00
2018-12-10T08:01:37.755Z,752.00
2018-12-10T08:02:37.689Z,828.00
2018-12-10T08:03:37.673Z,840.00
2018-12-10T08:04:37.663Z,876.00
2018-12-10T08:05:37.652Z,976.00
2018-12-10T08:06:37.644Z,1076.00
2018-12-10T08:07:37.792Z,1128.00
2018-12-10T08:08:37.623Z,1336.00
2018-12-10T08:09:37.611Z,1548.00
2018-12-10T08:10:37.600Z,1576.00
2018-12-10T08:11:37.589Z,1352.00
2018-12-10T08:12:37.579Z,1016.00
2018-12-10T08:13:37.610Z,912.00
2018-12-10T08:14:37.562Z,932.00
2018-12-10T08:15:37.548Z,964.00
2018-12-10T08:16:37.541Z,876.00
2018-12-10T08:17:37.532Z,892.00
2018-12-10T08:18:37.525Z,976.00
2018-12-10T08:19:37.866Z,1184.00
2018-12-10T08:20:37.497Z,1460.00
2018-12-10T08:21:37.529Z,1440.00
2018-12-10T08:22:37.482Z,1208.00
2018-12-10T08:23:37.493Z,1228.00
2018-12-10T08:24:37.462Z,1284.00
2018-12-10T08:25:37.663Z,1376.00
2018-12-10T08:26:37.501Z,1184.00
2018-12-10T08:27:37.429Z,1012.00
2018-12-10T08:28:37.419Z,1308.00
2018-12-10T08:29:37.405Z,1744.00
2018-12-10T08:30:37.399Z,2276.00
2018-12-10T08:31:37.424Z,2732.00
2018-12-10T08:32:37.409Z,1964.00
2018-12-10T08:33:37.390Z,2168.00
2018-12-10T08:34:41.408Z,2128.00
2018-12-10T08:35:40.893Z,2232.00
2018-12-10T08:36:37.332Z,2304.00
2018-12-10T08:37:37.778Z,2168.00
2018-12-10T08:38:37.316Z,2568.00
2018-12-10T08:39:37.312Z,3172.00
2018-12-10T08:40:37.306Z,2880.00
2018-12-10T08:41:37.375Z,2628.00
2018-12-10T08:42:37.278Z,2596.00
2018-12-10T08:43:37.329Z,2700.00
2018-12-10T08:44:37.249Z,2852.00
2018-12-10T08:45:37.239Z,3084.00
2018-12-10T08:46:37.231Z,3676.00
2018-12-10T08:47:37.219Z,3976.00
2018-12-10T08:48:37.212Z,3584.00
2018-12-10T08:49:37.241Z,3056.00
2018-12-10T08:50:37.187Z,2644.00
2018-12-10T08:51:37.179Z,2352.00
2018-12-10T08:52:37.191Z,2268.00
2018-12-10T08:53:37.161Z,2192.00
2018-12-10T08:54:37.188Z,2148.00
2018-12-10T08:55:37.286Z,2152.00
2018-12-10T08:56:37.130Z,1972.00
2018-12-10T08:57:37.122Z,2052.00
2018-12-10T08:58:37.217Z,2412.00
2018-12-10T08:59:37.097Z,2844.00
2018-12-10T09:00:37.092Z,3204.00
2018-12-10T09:01:37.229Z,3176.00
2018-12-10T09:02:43.927Z,2764.00
2018-12-10T09:03:38.020Z,2924.00
2018-12-10T09:04:37.095Z,3492.00
2018-12-10T09:05:37.069Z,3872.00
2018-12-10T09:06:37.935Z,4080.00
2018-12-10T09:07:37.123Z,3748.00
2018-12-10T09:08:37.034Z,2900.00
2018-12-10T09:09:37.017Z,2964.00
2018-12-10T09:10:37.043Z,2680.00
2018-12-10T09:11:36.975Z,2436.00
2018-12-10T09:12:36.959Z,2492.00
2018-12-10T09:13:38.310Z,2532.00
2018-12-10T09:14:36.941Z,3876.00
2018-12-10T09:15:36.937Z,3636.00
2018-12-10T09:16:36.924Z,4040.00
2018-12-10T09:17:36.915Z,4148.00
2018-12-10T09:18:36.899Z,4792.00
2018-12-10T09:19:37.181Z,4012.00
2018-12-10T09:20:36.879Z,3668.00
2018-12-10T09:21:36.873Z,3688.00
2018-12-10T09:22:36.858Z,3124.00
2018-12-10T09:23:37.393Z,3012.00
2018-12-10T09:24:36.835Z,3248.00
2018-12-10T09:25:37.173Z,3728.00
2018-12-10T09:26:36.819Z,4860.00
2018-12-10T09:27:36.804Z,5096.00
2018-12-10T09:28:36.799Z,5300.00
2018-12-10T09:29:36.888Z,6008.00
2018-12-10T09:30:36.812Z,5480.00
2018-12-10T09:31:37.384Z,5080.00
2018-12-10T09:32:36.773Z,4472.00
2018-12-10T09:33:36.747Z,4544.00
2018-12-10T09:34:36.750Z,3900.00
2018-12-10T09:35:36.734Z,3548.00
2018-12-10T09:36:36.735Z,3712.00
2018-12-10T09:37:37.232Z,3188.00
2018-12-10T09:38:36.696Z,3260.00
2018-12-10T09:39:36.681Z,3268.00
2018-12-10T09:40:36.674Z,3480.00
2018-12-10T09:41:36.666Z,4136.00
2018-12-10T09:42:36.694Z,4712.00
2018-12-10T09:43:36.675Z,4904.00
2018-12-10T09:44:36.639Z,4264.00
2018-12-10T09:45:36.656Z,3900.00
2018-12-10T09:46:36.613Z,3596.00
2018-12-10T09:47:36.615Z,3068.00
2018-12-10T09:48:36.619Z,2892.00
2018-12-10T09:49:36.652Z,2992.00
2018-12-10T09:50:36.568Z,3024.00
2018-12-10T09:51:36.554Z,2348.00
2018-12-10T09:52:36.544Z,2172.00
2018-12-10T09:53:36.533Z,1876.00
2018-12-10T09:54:36.523Z,2000.00
2018-12-10T09:55:36.594Z,1996.00
2018-12-10T09:56:36.503Z,2004.00
2018-12-10T09:57:36.500Z,1692.00
2018-12-10T09:58:36.484Z,1568.00
2018-12-10T09:59:36.474Z,1460.00
2018-12-10T10:00:36.479Z,1568.00
2018-12-10T10:01:36.526Z,1460.00
2018-12-10T10:02:36.457Z,1556.00
2018-12-10T10:03:36.463Z,1696.00
2018-12-10T10:04:36.430Z,1820.00
2018-12-10T10:05:36.427Z,1744.00
2018-12-10T10:06:36.402Z,2044.00
2018-12-10T10:07:36.432Z,2376.00
2018-12-10T10:08:36.379Z,2648.00
2018-12-10T10:09:36.373Z,2084.00
2018-12-10T10:10:36.359Z,1900.00
2018-12-10T10:11:36.347Z,1612.00
2018-12-10T10:12:36.347Z,1324.00
2018-12-10T10:13:36.750Z,1536.00
2018-12-10T10:14:36.359Z,1964.00
2018-12-10T10:15:36.333Z,1912.00
2018-12-10T10:16:36.301Z,1380.00
2018-12-10T10:17:36.289Z,908.00
2018-12-10T10:18:36.291Z,692.00
2018-12-10T10:19:36.310Z,740.00
2018-12-10T10:20:36.254Z,1012.00
2018-12-10T10:21:36.254Z,1116.00
2018-12-10T10:22:36.305Z,1292.00
2018-12-10T10:23:36.230Z,1324.00
2018-12-10T10:24:36.269Z,1724.00
2018-12-10T10:25:36.326Z,1764.00
2018-12-10T10:26:36.265Z,1856.00
2018-12-10T10:27:36.202Z,2944.00
2018-12-10T10:28:36.180Z,4500.00
2018-12-10T10:29:36.184Z,4884.00
2018-12-10T10:30:36.195Z,4184.00
2018-12-10T10:31:36.254Z,3056.00
2018-12-10T10:32:36.144Z,2204.00
2018-12-10T10:33:36.180Z,1860.00
2018-12-10T10:34:36.111Z,1412.00
2018-12-10T10:35:36.128Z,1404.00
2018-12-10T10:36:37.374Z,1768.00
2018-12-10T10:37:36.115Z,1908.00
2018-12-10T10:38:36.111Z,2264.00
2018-12-10T10:39:36.910Z,3188.00
2018-12-10T10:40:36.102Z,3596.00
2018-12-10T10:41:36.055Z,4352.00
2018-12-10T10:42:36.030Z,4908.00
2018-12-10T10:43:37.914Z,5720.00
2018-12-10T10:44:36.006Z,5520.00
2018-12-10T10:45:36.016Z,3924.00
2018-12-10T10:46:35.986Z,2660.00
2018-12-10T10:47:35.990Z,3616.00
2018-12-10T10:48:36.037Z,2372.00
2018-12-10T10:49:36.178Z,3088.00
2018-12-10T10:50:35.943Z,4232.00
2018-12-10T10:51:35.935Z,3304.00
2018-12-10T10:52:35.923Z,5360.00
2018-12-10T10:53:35.910Z,6568.00
2018-12-10T10:54:35.899Z,9096.00
2018-12-10T10:55:36.092Z,6232.00
2018-12-10T10:56:35.905Z,4892.00
2018-12-10T10:57:35.918Z,2756.00
2018-12-10T10:58:37.370Z,1988.00
2018-12-10T10:59:35.941Z,2008.00
2018-12-10T11:00:35.857Z,3024.00
2018-12-10T11:01:36.175Z,5436.00
2018-12-10T11:02:35.827Z,7368.00
2018-12-10T11:03:35.807Z,6200.00
2018-12-10T11:04:37.506Z,5656.00
2018-12-10T11:05:35.785Z,5508.00
2018-12-10T11:06:35.779Z,7672.00
2018-12-10T11:07:35.915Z,8756.00
2018-12-10T11:08:35.773Z,9456.00
2018-12-10T11:09:35.770Z,7216.00
2018-12-10T11:10:35.794Z,9232.00
2018-12-10T11:11:35.742Z,5784.00
2018-12-10T11:12:35.736Z,4580.00
2018-12-10T11:13:36.346Z,3032.00
2018-12-10T11:14:35.693Z,5008.00
2018-12-10T11:15:35.681Z,7992.00
2018-12-10T11:16:35.736Z,8224.00
2018-12-10T11:17:35.669Z,5460.00
2018-12-10T11:18:35.670Z,6224.00
2018-12-10T11:19:35.706Z,9148.00
2018-12-10T11:20:35.641Z,10016.00
2018-12-10T11:21:35.617Z,7784.00
2018-12-10T11:22:35.617Z,8844.00
2018-12-10T11:23:35.601Z,9860.00
2018-12-10T11:24:35.739Z,6480.00
2018-12-10T11:25:35.675Z,3156.00
2018-12-10T11:26:35.640Z,3352.00
2018-12-10T11:27:35.554Z,2612.00
2018-12-10T11:28:35.548Z,2852.00
2018-12-10T11:29:35.543Z,3940.00
2018-12-10T11:30:35.550Z,6648.00
2018-12-10T11:31:35.649Z,5792.00
2018-12-10T11:32:35.502Z,6616.00
2018-12-10T11:33:35.535Z,7636.00
2018-12-10T11:34:35.481Z,5976.00
2018-12-10T11:35:35.536Z,46528.00
2018-12-10T11:36:35.536Z,83008.00
2018-12-10T11:37:35.907Z,21920.00
2018-12-10T11:38:35.536Z,10284.00
2018-12-10T11:39:35.469Z,10544.00
2018-12-10T11:40:35.434Z,20448.00
2018-12-10T11:41:35.412Z,88192.00
2018-12-10T11:42:35.398Z,65472.00
2018-12-10T11:43:35.714Z,39424.00
2018-12-10T11:44:35.382Z,83904.00
2018-12-10T11:45:35.370Z,7156.00
2018-12-10T11:46:35.378Z,27712.00
2018-12-10T11:47:35.346Z,87456.00
2018-12-10T11:48:35.706Z,77664.00
2018-12-10T11:49:35.453Z,85120.00
2018-12-10T11:50:35.340Z,12948.00
2018-12-10T11:51:35.367Z,58176.00
2018-12-10T11:52:35.293Z,65760.00
2018-12-10T11:53:35.289Z,13568.00
2018-12-10T11:54:35.326Z,12072.00
2018-12-10T11:55:35.387Z,22368.00
2018-12-10T11:56:35.755Z,51520.00
2018-12-10T11:57:35.252Z,9376.00
2018-12-10T11:58:35.287Z,5244.00
2018-12-10T11:59:35.234Z,4096.00
2018-12-10T12:00:35.219Z,3604.00
2018-12-10T12:01:35.558Z,3392.00
2018-12-10T12:02:35.258Z,3644.00
2018-12-10T12:03:35.250Z,3732.00
2018-12-10T12:04:35.168Z,3696.00
2018-12-10T12:05:35.154Z,3196.00
2018-12-10T12:06:35.153Z,2832.00
2018-12-10T12:07:35.287Z,2340.00
2018-12-10T12:08:35.124Z,2608.00
2018-12-10T12:09:35.638Z,3036.00
2018-12-10T12:10:35.135Z,2092.00
2018-12-10T12:11:35.983Z,1764.00
2018-12-10T12:12:37.973Z,2040.00
2018-12-10T12:13:35.281Z,3280.00
2018-12-10T12:14:35.088Z,4292.00
2018-12-10T12:15:35.256Z,5548.00
2018-12-10T12:16:35.054Z,8600.00
2018-12-10T12:17:35.088Z,5136.00
2018-12-10T12:18:35.059Z,4544.00
2018-12-10T12:19:35.217Z,6396.00
2018-12-10T12:20:35.045Z,3380.00
2018-12-10T12:21:37.916Z,2096.00
2018-12-10T12:22:35.020Z,1648.00
2018-12-10T12:23:34.998Z,1204.00
2018-12-10T12:24:34.965Z,1124.00
2018-12-10T12:25:36.020Z,1088.00
2018-12-10T12:26:34.934Z,1012.00
2018-12-10T12:27:34.929Z,1120.00
2018-12-10T12:28:35.913Z,1196.00
2018-12-10T12:29:34.993Z,992.00
2018-12-10T12:30:34.893Z,752.00
2018-12-10T12:31:35.898Z,588.00
2018-12-10T12:32:34.872Z,608.00
2018-12-10T12:33:34.904Z,656.00
2018-12-10T12:34:34.920Z,508.00